createdAt,value
2019-01-22T00:01:25.503Z,43.83
2019-01-22T00:03:51.930Z,47.43
2019-01-22T00:06:18.657Z,44.00
2019-01-22T00:08:45.247Z,52.80
2019-01-22T00:11:11.646Z,44.97
2019-01-22T00:13:38.039Z,44.63
2019-01-22T00:16:04.709Z,48.30
2019-01-22T00:18:31.225Z,46.47
2019-01-22T00:20:57.676Z,46.97
2019-01-22T00:23:24.421Z,45.50
2019-01-22T00:25:50.865Z,41.83
2019-01-22T00:28:17.356Z,44.13
2019-01-22T00:30:44.062Z,46.83
2019-01-22T00:33:10.697Z,46.10
2019-01-22T00:35:37.126Z,42.03
2019-01-22T00:38:03.624Z,40.33
2019-01-22T00:40:30.074Z,40.60
2019-01-22T00:42:56.800Z,40.77
2019-01-22T00:45:23.285Z,46.90
2019-01-22T00:47:49.909Z,47.00
2019-01-22T00:50:17.214Z,42.80
2019-01-22T00:52:43.780Z,46.13
2019-01-22T00:55:14.880Z,40.93
2019-01-22T00:57:41.404Z,51.77
2019-01-22T01:00:13.580Z,45.23
2019-01-22T01:02:40.006Z,49.17
2019-01-22T01:05:06.997Z,40.60
2019-01-22T01:07:33.426Z,44.77
2019-01-22T01:10:00.268Z,39.73
2019-01-22T01:12:26.774Z,43.10
2019-01-22T01:14:53.322Z,35.97
2019-01-22T01:17:20.948Z,42.13
2019-01-22T01:19:47.427Z,41.87
2019-01-22T01:22:13.905Z,42.67
2019-01-22T01:24:40.412Z,43.40
2019-01-22T01:27:07.550Z,39.50
2019-01-22T01:29:34.074Z,49.30
2019-01-22T01:32:00.533Z,41.40
2019-01-22T01:34:26.941Z,50.67
2019-01-22T01:36:53.359Z,48.13
2019-01-22T01:39:19.889Z,51.20
2019-01-22T01:41:46.738Z,46.13
2019-01-22T01:44:13.573Z,51.47
2019-01-22T01:46:39.932Z,49.40
2019-01-22T01:49:06.546Z,46.57
2019-01-22T01:51:33.034Z,48.47
2019-01-22T01:53:59.518Z,61.33
2019-01-22T01:56:25.916Z,53.33
2019-01-22T01:58:52.440Z,48.63
2019-01-22T02:01:18.911Z,54.50
2019-01-22T02:03:45.300Z,53.63
2019-01-22T02:06:11.783Z,53.03
2019-01-22T02:08:38.224Z,52.37
2019-01-22T02:11:04.659Z,49.83
2019-01-22T02:13:31.666Z,54.43
2019-01-22T02:16:04.977Z,48.63
2019-01-22T02:18:37.218Z,52.87
2019-01-22T02:21:09.487Z,50.47
2019-01-22T02:23:41.612Z,47.70
2019-01-22T02:26:13.762Z,44.93
2019-01-22T02:28:46.297Z,51.10
2019-01-22T02:31:18.458Z,51.13
2019-01-22T02:33:50.617Z,48.17
2019-01-22T02:36:22.737Z,49.20
2019-01-22T02:38:54.974Z,54.93
2019-01-22T02:41:27.233Z,49.40
2019-01-22T02:43:59.555Z,48.93
2019-01-22T02:46:31.750Z,41.13
2019-01-22T02:49:04.023Z,44.40
2019-01-22T02:51:36.221Z,50.00
2019-01-22T02:54:07.998Z,53.90
2019-01-22T02:56:40.339Z,47.33
2019-01-22T02:59:12.847Z,57.53
2019-01-22T03:01:45.258Z,43.53
2019-01-22T03:04:17.541Z,45.23
2019-01-22T03:06:49.835Z,44.60
2019-01-22T03:09:22.023Z,48.27
2019-01-22T03:11:54.651Z,47.43
2019-01-22T03:14:27.123Z,47.83
2019-01-22T03:16:59.216Z,48.47
2019-01-22T03:19:31.389Z,47.20
2019-01-22T03:22:03.682Z,48.03
2019-01-22T03:24:36.004Z,51.50
2019-01-22T03:27:09.247Z,61.27
2019-01-22T03:29:38.723Z,49.80
2019-01-22T03:32:10.818Z,51.43
2019-01-22T03:34:43.224Z,53.67
2019-01-22T03:37:15.402Z,51.13
2019-01-22T03:39:47.553Z,53.27
2019-01-22T03:42:19.847Z,52.43
2019-01-22T03:44:52.525Z,55.17
2019-01-22T03:47:24.703Z,49.23
2019-01-22T03:49:56.892Z,51.87
2019-01-22T03:52:29.111Z,52.97
2019-01-22T03:55:01.779Z,54.63
2019-01-22T03:57:35.067Z,53.90
2019-01-22T04:00:06.758Z,57.03
2019-01-22T04:02:33.179Z,54.53
2019-01-22T04:04:59.541Z,52.40
2019-01-22T04:07:26.363Z,52.67
2019-01-22T04:09:56.270Z,50.73
2019-01-22T04:12:22.645Z,58.67
2019-01-22T04:14:49.020Z,55.07
2019-01-22T04:17:15.458Z,67.93
2019-01-22T04:19:41.899Z,63.80
2019-01-22T04:22:12.276Z,63.37
2019-01-22T04:24:40.682Z,60.63
2019-01-22T04:27:12.774Z,62.73
2019-01-22T04:29:44.981Z,63.30
2019-01-22T04:32:17.024Z,59.57
2019-01-22T04:35:07.204Z,59.27
2019-01-22T04:37:39.396Z,69.47
2019-01-22T04:40:11.538Z,65.23
2019-01-22T04:42:43.834Z,67.97
2019-01-22T04:45:14.051Z,65.00
2019-01-22T04:47:46.299Z,66.63
2019-01-22T04:50:18.464Z,83.50
2019-01-22T04:52:51.036Z,79.53
2019-01-22T04:55:23.425Z,87.77
2019-01-22T04:57:55.816Z,85.60
2019-01-22T05:00:28.286Z,79.00
2019-01-22T05:03:01.105Z,74.00
2019-01-22T05:05:33.739Z,70.10
2019-01-22T05:08:06.350Z,71.23
2019-01-22T05:10:38.920Z,62.53
2019-01-22T05:13:09.773Z,67.03
2019-01-22T05:15:40.276Z,60.23
2019-01-22T05:18:13.178Z,62.03
2019-01-22T05:20:45.662Z,71.00
2019-01-22T05:23:18.083Z,63.03
2019-01-22T05:25:50.550Z,69.87
2019-01-22T05:28:21.303Z,70.80
2019-01-22T05:30:53.810Z,65.67
2019-01-22T05:33:24.148Z,71.10
2019-01-22T05:35:54.694Z,69.53
2019-01-22T05:38:27.308Z,79.60
2019-01-22T05:40:57.894Z,74.83
2019-01-22T05:43:26.459Z,69.13
2019-01-22T05:45:59.085Z,69.33
2019-01-22T05:48:31.721Z,71.17
2019-01-22T05:51:04.264Z,70.90
2019-01-22T05:53:36.794Z,75.87
2019-01-22T05:56:09.340Z,80.50
2019-01-22T05:58:41.928Z,75.93
2019-01-22T06:01:13.728Z,67.40
2019-01-22T06:03:46.196Z,72.60
2019-01-22T06:06:18.673Z,67.37
2019-01-22T06:08:50.909Z,74.10
2019-01-22T06:11:23.317Z,62.33
2019-01-22T06:13:55.750Z,78.43
2019-01-22T06:16:28.235Z,73.93
2019-01-22T06:19:00.811Z,66.73
2019-01-22T06:21:32.994Z,72.83
2019-01-22T06:24:05.423Z,77.83
2019-01-22T06:26:36.047Z,71.23
2019-01-22T06:29:08.600Z,71.10
2019-01-22T06:31:41.119Z,71.30
2019-01-22T06:34:13.666Z,70.80
2019-01-22T06:36:46.266Z,74.93
2019-01-22T06:39:18.721Z,74.07
2019-01-22T06:41:51.283Z,74.03
2019-01-22T06:44:23.613Z,73.40
2019-01-22T06:46:55.850Z,71.80
2019-01-22T06:49:28.302Z,77.03
2019-01-22T06:52:00.645Z,69.53
2019-01-22T06:54:39.510Z,68.63
2019-01-22T06:57:07.560Z,64.90
2019-01-22T06:59:38.094Z,65.97
2019-01-22T07:02:08.649Z,66.80
2019-01-22T07:04:41.018Z,68.67
2019-01-22T07:07:11.659Z,67.17
2019-01-22T07:09:44.215Z,77.50
2019-01-22T07:12:16.835Z,73.60
2019-01-22T07:14:49.326Z,76.20
2019-01-22T07:17:21.858Z,72.47
2019-01-22T07:19:54.061Z,82.40
2019-01-22T07:22:26.573Z,73.50
2019-01-22T07:24:57.110Z,75.97
2019-01-22T07:27:29.566Z,83.63
2019-01-22T07:30:02.012Z,74.87
2019-01-22T07:32:30.765Z,71.90
2019-01-22T07:35:03.117Z,76.00
2019-01-22T07:37:35.656Z,84.60
2019-01-22T07:40:06.367Z,82.20
2019-01-22T07:42:38.616Z,82.97
2019-01-22T07:45:10.797Z,76.80
2019-01-22T07:47:43.258Z,77.37
2019-01-22T07:50:15.710Z,80.03
2019-01-22T07:52:47.998Z,87.03
2019-01-22T07:55:20.469Z,74.27
2019-01-22T07:57:52.835Z,83.93
2019-01-22T08:00:25.044Z,78.73
2019-01-22T08:02:57.202Z,78.63
2019-01-22T08:05:31.351Z,84.73
2019-01-22T08:08:05.365Z,76.00
2019-01-22T08:10:37.551Z,76.87
2019-01-22T08:13:07.719Z,75.00
2019-01-22T08:15:40.031Z,77.93
2019-01-22T08:18:12.152Z,78.87
2019-01-22T08:20:44.273Z,90.23
2019-01-22T08:23:16.399Z,83.00
2019-01-22T08:25:48.563Z,81.93
2019-01-22T08:28:20.714Z,78.40
2019-01-22T08:30:52.835Z,72.67
2019-01-22T08:33:25.011Z,77.27
2019-01-22T08:35:57.112Z,74.77
2019-01-22T08:38:29.313Z,83.07
2019-01-22T08:41:01.435Z,80.73
2019-01-22T08:43:33.595Z,85.70
2019-01-22T08:46:03.812Z,81.40
2019-01-22T08:48:36.040Z,83.93
2019-01-22T08:51:08.190Z,88.33
2019-01-22T08:53:40.362Z,78.33
2019-01-22T08:56:12.518Z,80.37
2019-01-22T08:58:44.710Z,81.63
2019-01-22T09:01:14.991Z,82.90
2019-01-22T09:03:45.249Z,76.07
2019-01-22T09:06:17.360Z,75.47
2019-01-22T09:08:49.555Z,91.13
2019-01-22T09:11:22.091Z,78.07
2019-01-22T09:13:54.420Z,66.87
2019-01-22T09:16:26.533Z,87.93
2019-01-22T09:18:56.715Z,83.30
2019-01-22T09:21:28.939Z,76.80
2019-01-22T09:24:01.899Z,79.63
2019-01-22T09:26:34.245Z,69.13
2019-01-22T09:29:06.359Z,74.77
2019-01-22T09:31:38.653Z,71.97
2019-01-22T09:34:12.006Z,68.27
2019-01-22T09:36:44.450Z,79.20
2019-01-22T09:39:10.995Z,75.00
2019-01-22T09:41:37.393Z,70.27
2019-01-22T09:44:03.774Z,83.00
2019-01-22T09:46:30.245Z,69.43
2019-01-22T09:48:56.721Z,74.73
2019-01-22T09:51:23.062Z,64.50
2019-01-22T09:53:49.645Z,57.10
2019-01-22T09:56:16.059Z,69.10
2019-01-22T09:58:42.554Z,71.47
2019-01-22T10:01:09.013Z,68.70
2019-01-22T10:03:35.482Z,78.20
2019-01-22T10:06:04.603Z,74.00
2019-01-22T10:08:32.491Z,68.23
2019-01-22T10:11:01.758Z,67.10
2019-01-22T10:13:27.165Z,66.67
2019-01-22T10:15:53.661Z,77.87
2019-01-22T10:18:20.209Z,71.97
2019-01-22T10:20:46.631Z,75.67
2019-01-22T10:23:14.070Z,75.07
2019-01-22T10:25:40.692Z,62.27
2019-01-22T10:28:07.113Z,61.87
2019-01-22T10:30:33.639Z,64.60
2019-01-22T10:33:00.007Z,65.30
2019-01-22T10:35:26.422Z,62.63
2019-01-22T10:37:52.822Z,61.80
2019-01-22T10:40:22.736Z,71.60
2019-01-22T10:42:49.432Z,70.20
2019-01-22T10:45:17.866Z,67.83
2019-01-22T10:47:44.302Z,59.60
2019-01-22T10:50:25.010Z,62.60
2019-01-22T10:52:51.524Z,66.57
2019-01-22T10:55:17.927Z,57.83
2019-01-22T10:57:44.356Z,58.60
2019-01-22T11:00:16.179Z,55.57
2019-01-22T11:02:42.798Z,52.10
2019-01-22T11:05:14.912Z,63.23
2019-01-22T11:07:41.346Z,57.50
2019-01-22T11:10:07.917Z,62.50
2019-01-22T11:12:34.253Z,54.30
2019-01-22T11:15:00.679Z,56.07
2019-01-22T11:17:27.088Z,49.23
2019-01-22T11:19:53.541Z,53.13
2019-01-22T11:22:20.063Z,46.87
2019-01-22T11:24:46.569Z,53.13
2019-01-22T11:27:12.907Z,49.60
2019-01-22T11:29:39.262Z,49.87
2019-01-22T11:32:05.669Z,50.40
2019-01-22T11:34:32.111Z,53.13
2019-01-22T11:36:59.913Z,52.27
2019-01-22T11:39:26.634Z,52.80
2019-01-22T11:41:53.094Z,48.80
2019-01-22T11:44:22.765Z,50.47
2019-01-22T11:46:49.420Z,51.03
2019-01-22T11:49:16.081Z,47.10
2019-01-22T11:51:42.458Z,52.50
2019-01-22T11:54:08.823Z,52.63
2019-01-22T11:56:35.218Z,60.40
2019-01-22T11:59:01.573Z,52.33
2019-01-22T12:01:28.029Z,52.43
2019-01-22T12:03:54.391Z,50.03
2019-01-22T12:06:20.860Z,52.30
2019-01-22T12:08:47.860Z,55.80
2019-01-22T12:11:14.345Z,49.13
2019-01-22T12:13:41.224Z,52.53
2019-01-22T12:16:07.644Z,51.27
2019-01-22T12:18:34.104Z,49.93
2019-01-22T12:21:00.470Z,52.53
2019-01-22T12:23:26.901Z,49.77
2019-01-22T12:25:57.200Z,48.97
2019-01-22T12:28:21.899Z,61.97
2019-01-22T12:30:49.302Z,52.17
2019-01-22T12:33:15.808Z,47.93
2019-01-22T12:35:42.270Z,46.03
2019-01-22T12:38:08.762Z,47.27
2019-01-22T12:40:36.127Z,46.50
2019-01-22T12:43:03.503Z,47.93
2019-01-22T12:45:34.287Z,60.10
2019-01-22T12:48:00.611Z,60.40
2019-01-22T12:50:27.170Z,55.27
2019-01-22T12:52:53.665Z,53.37
2019-01-22T12:55:20.134Z,51.10
2019-01-22T12:57:46.681Z,57.57
2019-01-22T13:00:18.059Z,60.07
2019-01-22T13:02:44.662Z,53.37
2019-01-22T13:05:16.890Z,51.63
2019-01-22T13:07:43.289Z,56.77
2019-01-22T13:10:09.909Z,50.47
2019-01-22T13:12:38.193Z,57.83
2019-01-22T13:15:24.263Z,54.33
2019-01-22T13:17:56.962Z,62.37
2019-01-22T13:20:23.531Z,60.47
2019-01-22T13:22:50.107Z,61.53
2019-01-22T13:25:18.233Z,59.20
2019-01-22T13:27:44.944Z,65.17
2019-01-22T13:30:16.741Z,63.73
2019-01-22T13:32:50.644Z,64.53
2019-01-22T13:35:36.036Z,62.73
2019-01-22T13:38:35.191Z,56.17
2019-01-22T13:41:04.808Z,53.70
2019-01-22T13:43:31.236Z,50.90
2019-01-22T13:45:57.597Z,48.30
2019-01-22T13:48:30.032Z,49.30
2019-01-22T13:50:59.589Z,40.20
2019-01-22T13:53:47.283Z,51.50
2019-01-22T13:56:18.673Z,59.13
2019-01-22T13:58:45.341Z,53.53
2019-01-22T14:01:11.758Z,51.60
2019-01-22T14:03:38.546Z,54.90
2019-01-22T14:06:05.155Z,57.13
2019-01-22T14:08:55.047Z,56.00
2019-01-22T14:11:54.585Z,64.47
2019-01-22T14:14:55.186Z,58.97
2019-01-22T14:17:52.847Z,58.50
2019-01-22T14:20:35.486Z,61.00
2019-01-22T14:23:17.211Z,54.83
2019-01-22T14:25:45.081Z,56.50
2019-01-22T14:28:28.292Z,58.67
2019-01-22T14:30:54.785Z,57.07
2019-01-22T14:33:56.456Z,54.53
2019-01-22T14:36:37.113Z,57.90
2019-01-22T14:39:33.860Z,49.73
2019-01-22T14:45:53.441Z,53.57
2019-01-22T14:48:46.530Z,56.30
2019-01-22T14:54:09.072Z,59.60
2019-01-22T14:56:35.560Z,52.50
2019-01-22T14:59:02.067Z,58.63
2019-01-22T15:01:28.514Z,65.00
2019-01-22T15:03:54.880Z,64.10
2019-01-22T15:06:21.243Z,63.87
2019-01-22T15:08:47.630Z,68.07
2019-01-22T15:11:14.029Z,62.10
2019-01-22T15:13:40.398Z,61.33
2019-01-22T15:16:06.801Z,66.40
2019-01-22T15:18:33.194Z,66.30
2019-01-22T15:20:59.538Z,62.00
2019-01-22T15:23:25.908Z,63.67
2019-01-22T15:25:52.412Z,73.27
2019-01-22T15:28:18.786Z,71.30
2019-01-22T15:30:45.126Z,69.93
2019-01-22T15:33:14.641Z,68.53
2019-01-22T15:35:41.018Z,71.53
2019-01-22T15:38:07.351Z,73.77
2019-01-22T15:40:33.922Z,81.20
2019-01-22T15:43:00.577Z,75.70
2019-01-22T15:45:27.163Z,72.23
2019-01-22T15:47:53.702Z,74.80
2019-01-22T15:50:21.999Z,76.53
2019-01-22T15:52:48.397Z,72.23
2019-01-22T15:55:20.338Z,77.57
2019-01-22T15:57:47.170Z,72.93
2019-01-22T16:00:17.673Z,71.57
2019-01-22T16:02:44.142Z,88.60
2019-01-22T16:05:10.556Z,80.10
2019-01-22T16:07:38.121Z,83.67
2019-01-22T16:10:08.895Z,82.37
2019-01-22T16:12:35.273Z,80.90
2019-01-22T16:15:02.164Z,79.53
2019-01-22T16:17:29.810Z,83.20
2019-01-22T16:19:56.199Z,81.03
2019-01-22T16:22:22.539Z,91.03
2019-01-22T16:24:49.358Z,83.00
2019-01-22T16:27:15.803Z,83.50
2019-01-22T16:29:42.289Z,88.63
2019-01-22T16:32:09.230Z,87.37
2019-01-22T16:34:35.890Z,88.33
2019-01-22T16:37:02.272Z,91.83
2019-01-22T16:39:30.961Z,90.10
2019-01-22T16:41:57.467Z,87.23
2019-01-22T16:44:23.876Z,96.47
2019-01-22T16:46:50.378Z,91.83
2019-01-22T16:49:16.942Z,102.87
2019-01-22T16:51:43.284Z,97.37
2019-01-22T16:54:10.002Z,105.63
2019-01-22T16:56:36.703Z,100.93
2019-01-22T16:59:03.389Z,91.20
2019-01-22T17:01:29.742Z,88.77
2019-01-22T17:03:56.355Z,99.63
2019-01-22T17:06:22.820Z,98.37
2019-01-22T17:08:49.170Z,94.90
2019-01-22T17:11:16.236Z,82.03
2019-01-22T17:13:42.959Z,99.63
2019-01-22T17:16:09.509Z,100.60
2019-01-22T17:18:36.133Z,103.10
2019-01-22T17:21:02.859Z,103.93
2019-01-22T17:23:29.357Z,104.20
2019-01-22T17:25:55.747Z,112.97
2019-01-22T17:28:22.115Z,99.47
2019-01-22T17:30:48.510Z,103.20
2019-01-22T17:33:16.779Z,111.00
2019-01-22T17:35:45.002Z,112.13
2019-01-22T17:38:11.664Z,111.00
2019-01-22T17:40:38.136Z,114.13
2019-01-22T17:43:04.596Z,123.63
2019-01-22T17:45:31.302Z,111.80
2019-01-22T17:47:57.858Z,121.27
2019-01-22T17:50:24.507Z,111.67
2019-01-22T17:52:50.918Z,106.30
2019-01-22T17:55:17.409Z,112.90
2019-01-22T17:57:43.828Z,120.27
2019-01-22T18:00:16.809Z,107.03
2019-01-22T18:02:43.372Z,115.23
2019-01-22T18:05:16.141Z,121.80
2019-01-22T18:07:45.623Z,120.40
2019-01-22T18:10:17.309Z,98.53
2019-01-22T18:12:43.662Z,113.17
2019-01-22T18:15:14.606Z,106.37
2019-01-22T18:17:41.307Z,112.53
2019-01-22T18:20:12.874Z,117.30
2019-01-22T18:22:41.251Z,129.07
2019-01-22T18:25:09.498Z,126.60
2019-01-22T18:27:35.913Z,144.73
2019-01-22T18:30:07.862Z,141.13
2019-01-22T18:32:34.250Z,141.47
2019-01-22T18:35:00.624Z,133.43
2019-01-22T18:37:27.029Z,133.80
2019-01-22T18:39:53.417Z,133.00
2019-01-22T18:42:19.851Z,135.63
2019-01-22T18:44:46.264Z,121.53
2019-01-22T18:47:12.614Z,124.10
2019-01-22T18:49:38.997Z,130.60
2019-01-22T18:52:05.328Z,131.43
2019-01-22T18:54:31.703Z,139.13
2019-01-22T18:56:58.118Z,127.77
2019-01-22T18:59:24.984Z,123.43
2019-01-22T19:01:51.296Z,120.43
2019-01-22T19:04:17.738Z,113.33
2019-01-22T19:06:45.869Z,114.50
2019-01-22T19:09:12.328Z,105.10
2019-01-22T19:11:38.796Z,118.70
2019-01-22T19:14:05.209Z,118.23
2019-01-22T19:16:31.611Z,115.40
2019-01-22T19:18:58.002Z,112.07
2019-01-22T19:21:24.780Z,119.37
2019-01-22T19:23:51.417Z,108.77
2019-01-22T19:26:18.023Z,128.13
2019-01-22T19:28:44.572Z,120.43
2019-01-22T19:31:11.131Z,124.17
2019-01-22T19:33:37.475Z,115.70
2019-01-22T19:36:04.642Z,122.60
2019-01-22T19:38:31.052Z,133.60
2019-01-22T19:40:57.414Z,130.53
2019-01-22T19:43:23.799Z,138.97
2019-01-22T19:45:51.647Z,136.57
2019-01-22T19:48:18.028Z,162.50
2019-01-22T19:50:44.484Z,162.70
2019-01-22T19:53:10.958Z,141.63
2019-01-22T19:55:37.334Z,146.23
2019-01-22T19:58:04.838Z,151.00
2019-01-22T20:00:34.870Z,140.40
2019-01-22T20:03:01.267Z,147.63
2019-01-22T20:05:27.903Z,129.67
2019-01-22T20:07:55.846Z,124.87
2019-01-22T20:10:22.284Z,114.90
2019-01-22T20:12:48.975Z,116.63
2019-01-22T20:15:19.320Z,114.83
2019-01-22T20:17:45.946Z,108.37
2019-01-22T20:20:15.458Z,112.90
2019-01-22T20:22:42.455Z,114.93
2019-01-22T20:25:08.837Z,128.40
2019-01-22T20:27:35.207Z,117.60
2019-01-22T20:30:05.351Z,118.27
2019-01-22T20:32:31.771Z,105.27
2019-01-22T20:34:58.243Z,115.10
2019-01-22T20:37:24.744Z,150.67
2019-01-22T20:39:51.139Z,149.93
2019-01-22T20:42:17.494Z,146.30
2019-01-22T20:44:43.995Z,147.93
2019-01-22T20:47:10.492Z,164.27
2019-01-22T20:49:36.867Z,126.90
2019-01-22T20:52:03.257Z,124.50
2019-01-22T20:54:29.640Z,120.43
2019-01-22T20:56:56.086Z,118.70
2019-01-22T20:59:22.506Z,124.03
2019-01-22T21:01:48.940Z,131.27
2019-01-22T21:04:17.680Z,123.57
2019-01-22T21:06:44.046Z,134.53
2019-01-22T21:09:10.434Z,132.03
2019-01-22T21:11:36.966Z,137.73
2019-01-22T21:14:03.371Z,150.97
2019-01-22T21:16:29.892Z,141.20
2019-01-22T21:18:56.277Z,147.40
2019-01-22T21:21:23.444Z,138.90
2019-01-22T21:23:51.783Z,141.33
2019-01-22T21:26:18.232Z,151.70
2019-01-22T21:28:44.666Z,160.37
2019-01-22T21:31:11.115Z,157.90
2019-01-22T21:33:38.702Z,149.17
2019-01-22T21:36:05.156Z,143.80
2019-01-22T21:38:31.614Z,144.73
2019-01-22T21:40:58.227Z,145.20
2019-01-22T21:43:24.643Z,147.23
2019-01-22T21:45:51.413Z,152.80
2019-01-22T21:48:18.870Z,197.30
2019-01-22T21:50:45.289Z,730.00
2019-01-22T21:53:11.697Z,268.40
2019-01-22T21:55:38.075Z,294.13
2019-01-22T21:58:08.505Z,168.27
2019-01-22T22:00:37.081Z,137.93
2019-01-22T22:03:03.648Z,138.67
2019-01-22T22:05:30.061Z,134.53
2019-01-22T22:07:56.668Z,146.33
2019-01-22T22:10:23.037Z,132.93
2019-01-22T22:12:49.471Z,141.20
2019-01-22T22:15:19.103Z,139.63
2019-01-22T22:17:45.730Z,142.83
2019-01-22T22:20:14.594Z,128.80
2019-01-22T22:22:42.069Z,120.60
2019-01-22T22:25:12.172Z,135.23
2019-01-22T22:27:38.565Z,137.27
2019-01-22T22:30:10.773Z,133.13
2019-01-22T22:32:37.163Z,153.93
2019-01-22T22:35:06.707Z,153.77
2019-01-22T22:37:33.080Z,139.53
2019-01-22T22:39:59.484Z,148.70
2019-01-22T22:42:26.011Z,215.67
2019-01-22T22:44:52.366Z,205.10
2019-01-22T22:47:18.748Z,181.50
2019-01-22T22:49:45.170Z,138.37
2019-01-22T22:52:11.551Z,124.63
2019-01-22T22:54:38.259Z,140.63
2019-01-22T22:57:04.622Z,122.70
2019-01-22T22:59:30.979Z,137.07
2019-01-22T23:01:57.496Z,143.13
2019-01-22T23:04:23.955Z,142.73
2019-01-22T23:06:50.277Z,158.27
2019-01-22T23:09:49.764Z,155.53
2019-01-22T23:12:55.248Z,146.00
2019-01-22T23:15:27.630Z,136.53
2019-01-22T23:18:02.677Z,142.53
2019-01-22T23:20:30.185Z,161.90
2019-01-22T23:23:00.393Z,159.50
2019-01-22T23:25:27.978Z,153.07
2019-01-22T23:27:54.349Z,156.07
2019-01-22T23:30:20.762Z,146.27
2019-01-22T23:32:47.196Z,144.97
2019-01-22T23:35:13.633Z,145.57
2019-01-22T23:37:40.033Z,145.30
2019-01-22T23:40:10.846Z,135.50
2019-01-22T23:42:37.270Z,138.67
2019-01-22T23:45:08.376Z,148.63
2019-01-22T23:47:34.821Z,130.53
2019-01-22T23:50:01.213Z,138.00
2019-01-22T23:52:27.684Z,146.63
2019-01-22T23:54:54.170Z,130.87
2019-01-22T23:57:20.581Z,125.00
2019-01-22T23:59:46.947Z,123.80
